Greens Bayou, Texas
Current Conditions -  °F | °C
As of 10:50 AM on Saturday 25 Oct 2014 (Local Time) from KEFD Reporting Station
Clear Clear  
Wind Chill: 72°   Ceiling: Unl
Heat Index: 72°   Visibility: 7mi
Dew Point: 57°   Wind: 0mph
Humidity: 60%   Direction: NA
Pressure: 30.2"   Gusts: NA
Location:  29.7654°N, 95.1705°W
Report Text: KEFD 251550Z 00000KT 7SM CLR 22/14 A3020
Loading
Personal Weather Stations






























Interactive Weather Map
Tropical Storm Tracking
New forecast layout! Learn more

10-Day Weather Forecast

Advertisements
Track Severe Weather on mobile